createdAt,value
2022-11-13T00:02:52.462Z,8.30
2022-11-13T00:07:59.290Z,8.20
2022-11-13T00:13:05.977Z,8.20
2022-11-13T00:18:12.873Z,8.20
2022-11-13T00:23:19.663Z,8.20
2022-11-13T00:28:26.967Z,8.20
2022-11-13T00:38:43.708Z,8.20
2022-11-13T00:43:51.371Z,8.20
2022-11-13T00:48:58.637Z,8.20
2022-11-13T00:54:05.492Z,8.10
2022-11-13T00:59:12.703Z,8.20
2022-11-13T01:04:19.533Z,8.30
2022-11-13T01:09:26.372Z,8.10
2022-11-13T01:14:33.377Z,8.10
2022-11-13T01:19:40.507Z,8.20
2022-11-13T01:24:47.892Z,8.10
2022-11-13T01:29:55.227Z,8.00
2022-11-13T01:35:02.170Z,7.90
2022-11-13T01:40:09.658Z,7.90
2022-11-13T01:46:03.133Z,7.90
2022-11-13T01:51:14.500Z,7.90
2022-11-13T01:56:21.823Z,7.80
2022-11-13T02:01:28.704Z,7.80
2022-11-13T02:06:45.424Z,7.90
2022-11-13T02:11:53.118Z,7.90
2022-11-13T02:17:04.946Z,7.50
2022-11-13T02:22:34.046Z,7.40
2022-11-13T02:27:52.188Z,7.20
2022-11-13T02:33:00.874Z,6.90
2022-11-13T02:38:08.508Z,6.80
2022-11-13T02:43:15.214Z,6.60
2022-11-13T02:48:21.874Z,6.60
2022-11-13T02:53:28.728Z,6.60
2022-11-13T02:58:35.523Z,6.60
2022-11-13T03:03:57.407Z,6.60
2022-11-13T03:08:50.512Z,6.80
2022-11-13T03:13:57.242Z,6.80
2022-11-13T03:19:04.646Z,6.80
2022-11-13T03:24:11.331Z,6.50
2022-11-13T03:29:18.103Z,6.40
2022-11-13T03:34:24.906Z,6.30
2022-11-13T03:39:31.585Z,6.30
2022-11-13T03:44:38.286Z,6.40
2022-11-13T03:49:44.987Z,6.40
2022-11-13T03:54:51.647Z,6.40
2022-11-13T03:59:58.332Z,5.90
2022-11-13T04:05:05.298Z,5.90
2022-11-13T04:10:12.140Z,5.90
2022-11-13T04:15:19.212Z,5.90
2022-11-13T04:20:27.507Z,5.80
2022-11-13T04:25:34.189Z,5.70
2022-11-13T04:30:40.962Z,5.70
2022-11-13T04:35:48.761Z,5.80
2022-11-13T04:40:57.105Z,5.70
2022-11-13T04:46:03.829Z,5.60
2022-11-13T04:51:10.532Z,5.70
2022-11-13T04:56:17.250Z,5.70
2022-11-13T05:01:24.021Z,5.70
2022-11-13T05:06:30.645Z,5.70
2022-11-13T05:11:37.300Z,5.60
2022-11-13T05:16:44.018Z,5.60
2022-11-13T05:21:50.690Z,5.50
2022-11-13T05:26:57.375Z,5.50
2022-11-13T05:32:04.051Z,5.50
2022-11-13T05:37:10.756Z,5.60
2022-11-13T05:42:17.453Z,5.60
2022-11-13T05:47:24.106Z,5.60
2022-11-13T05:52:30.810Z,5.50
2022-11-13T05:57:37.522Z,5.50
2022-11-13T06:02:44.429Z,5.50
2022-11-13T06:07:53.842Z,5.40
2022-11-13T06:13:00.518Z,5.40
2022-11-13T06:18:07.239Z,5.40
2022-11-13T06:23:13.884Z,5.50
2022-11-13T06:28:20.585Z,5.50
2022-11-13T06:33:27.894Z,5.40
2022-11-13T06:38:37.256Z,5.60
2022-11-13T06:43:47.735Z,5.50
2022-11-13T06:48:54.468Z,5.60
2022-11-13T06:54:01.139Z,5.60
2022-11-13T06:59:08.694Z,5.50
2022-11-13T07:04:15.628Z,5.60
2022-11-13T07:09:22.357Z,5.70
2022-11-13T07:14:29.070Z,5.70
2022-11-13T07:19:35.804Z,5.80
2022-11-13T07:24:42.883Z,5.90
2022-11-13T07:29:49.658Z,6.00
2022-11-13T07:34:56.344Z,6.10
2022-11-13T07:40:03.678Z,6.20
2022-11-13T07:45:10.786Z,6.30
2022-11-13T07:50:17.866Z,6.30
2022-11-13T07:55:24.658Z,6.50
2022-11-13T08:00:33.415Z,6.60
2022-11-13T08:05:40.108Z,6.60
2022-11-13T08:10:46.813Z,6.80
2022-11-13T08:15:53.470Z,6.80
2022-11-13T08:21:02.845Z,6.90
2022-11-13T08:26:10.337Z,6.90
2022-11-13T08:31:19.219Z,7.00
2022-11-13T08:36:25.939Z,6.90
2022-11-13T08:41:32.625Z,7.30
2022-11-13T08:46:39.592Z,7.50
2022-11-13T08:51:46.152Z,7.60
2022-11-13T08:56:56.695Z,7.60
2022-11-13T09:02:01.444Z,7.60
2022-11-13T09:07:08.234Z,7.80
2022-11-13T09:12:14.976Z,7.80
2022-11-13T09:17:21.678Z,7.80
2022-11-13T09:22:28.440Z,7.70
2022-11-13T09:27:35.032Z,7.80
2022-11-13T09:32:41.956Z,7.50
2022-11-13T09:37:50.314Z,7.50
2022-11-13T09:42:57.494Z,7.60
2022-11-13T09:48:35.456Z,7.50
2022-11-13T09:53:44.239Z,7.50
2022-11-13T09:59:22.943Z,7.30
2022-11-13T10:04:45.800Z,7.50
2022-11-13T10:10:37.362Z,7.50
2022-11-13T10:15:47.215Z,7.60
2022-11-13T10:20:58.614Z,7.60
2022-11-13T10:26:18.647Z,7.80
2022-11-13T10:31:25.458Z,7.90
2022-11-13T10:36:59.052Z,8.10
2022-11-13T10:42:06.002Z,8.10
2022-11-13T10:52:35.129Z,8.40
2022-11-13T10:57:43.863Z,8.50
2022-11-13T11:02:52.926Z,8.50
2022-11-13T11:08:00.798Z,8.60
2022-11-13T11:13:23.769Z,8.40
2022-11-13T11:18:40.670Z,8.40
2022-11-13T11:23:57.870Z,8.40
2022-11-13T11:29:12.355Z,8.60
2022-11-13T11:34:23.999Z,8.90
2022-11-13T11:39:44.006Z,8.70
2022-11-13T11:44:55.221Z,8.90
2022-11-13T11:50:03.408Z,8.80
2022-11-13T11:55:29.579Z,8.70
2022-11-13T12:00:39.699Z,8.70
2022-11-13T12:06:10.586Z,8.80
2022-11-13T12:11:30.622Z,8.80
2022-11-13T12:17:01.625Z,8.80
2022-11-13T12:22:16.055Z,8.90
2022-11-13T12:34:09.878Z,8.90
2022-11-13T12:39:23.845Z,8.90
2022-11-13T12:44:31.434Z,9.00
2022-11-13T12:49:38.828Z,9.00
2022-11-13T12:54:45.911Z,8.70
2022-11-13T13:00:03.636Z,8.70
2022-11-13T13:05:26.930Z,8.80
2022-11-13T13:10:57.750Z,8.70
2022-11-13T13:16:09.358Z,8.70
2022-11-13T13:21:20.671Z,8.70
2022-11-13T13:26:31.147Z,8.70
2022-11-13T13:31:42.838Z,8.70
2022-11-13T13:37:18.035Z,8.70
2022-11-13T13:42:41.007Z,8.70
2022-11-13T13:47:51.440Z,8.70
2022-11-13T13:53:00.174Z,8.50
2022-11-13T13:58:13.879Z,8.50
2022-11-13T14:03:25.932Z,8.40
2022-11-13T14:08:33.024Z,8.50
2022-11-13T14:13:39.727Z,8.40
2022-11-13T14:18:46.565Z,8.30
2022-11-13T14:23:55.750Z,8.40
2022-11-13T14:29:04.460Z,8.40
2022-11-13T14:34:15.714Z,8.30
2022-11-13T14:39:29.854Z,8.20
2022-11-13T14:44:37.960Z,8.20
2022-11-13T14:49:44.648Z,8.00
2022-11-13T14:55:14.153Z,7.90
2022-11-13T15:00:23.006Z,7.90
2022-11-13T15:05:30.296Z,7.70
2022-11-13T15:10:39.049Z,7.50
2022-11-13T15:15:45.883Z,7.40
2022-11-13T15:20:53.077Z,7.30
2022-11-13T15:26:00.055Z,7.20
2022-11-13T15:31:20.010Z,7.00
2022-11-13T15:36:26.949Z,6.80
2022-11-13T15:41:35.131Z,6.80
2022-11-13T15:46:42.681Z,6.80
2022-11-13T15:51:50.009Z,6.60
2022-11-13T15:56:57.306Z,6.50
2022-11-13T16:02:04.067Z,6.50
2022-11-13T16:07:21.884Z,6.40
2022-11-13T16:12:28.926Z,6.30
2022-11-13T16:17:40.406Z,6.30
2022-11-13T16:22:48.288Z,6.50
2022-11-13T16:27:55.474Z,6.60
2022-11-13T16:33:04.332Z,6.70
2022-11-13T16:38:16.207Z,6.70
2022-11-13T16:43:23.520Z,6.80
2022-11-13T16:48:30.246Z,6.80
2022-11-13T16:53:37.530Z,6.60
2022-11-13T16:58:44.745Z,6.50
2022-11-13T17:03:51.525Z,6.30
2022-11-13T17:09:00.480Z,6.20
2022-11-13T17:14:07.359Z,6.10
2022-11-13T17:19:15.584Z,6.00
2022-11-13T17:24:22.258Z,5.90
2022-11-13T17:29:28.945Z,5.90
2022-11-13T17:34:36.870Z,5.80
2022-11-13T17:39:43.581Z,5.80
2022-11-13T17:44:50.301Z,5.90
2022-11-13T17:50:02.457Z,6.00
2022-11-13T17:55:07.999Z,6.00
2022-11-13T18:00:15.850Z,5.90
2022-11-13T18:05:22.836Z,5.90
2022-11-13T18:10:29.613Z,5.80
2022-11-13T18:15:39.370Z,5.90
2022-11-13T18:20:46.211Z,5.90
2022-11-13T18:25:53.637Z,5.90
2022-11-13T18:31:00.912Z,5.90
2022-11-13T18:36:09.146Z,6.00
2022-11-13T18:41:23.188Z,6.10
2022-11-13T18:46:31.479Z,6.40
2022-11-13T18:51:38.751Z,6.40
2022-11-13T18:56:46.321Z,6.60
2022-11-13T19:01:53.264Z,6.80
2022-11-13T19:07:00.515Z,6.70
2022-11-13T19:12:08.600Z,6.80
2022-11-13T19:17:15.262Z,6.90
2022-11-13T19:22:22.171Z,6.90
2022-11-13T19:27:28.886Z,7.00
2022-11-13T19:32:35.703Z,7.00
2022-11-13T19:37:42.516Z,7.00
2022-11-13T19:42:49.357Z,7.00
2022-11-13T19:47:56.874Z,7.00
2022-11-13T19:53:03.947Z,7.10
2022-11-13T19:58:10.815Z,7.00
2022-11-13T20:03:18.202Z,7.00
2022-11-13T20:08:27.968Z,7.10
2022-11-13T20:13:42.085Z,7.00
2022-11-13T20:18:50.121Z,7.00
2022-11-13T20:23:59.904Z,7.10
2022-11-13T20:29:07.054Z,7.10
2022-11-13T20:34:14.925Z,7.00
2022-11-13T20:39:22.045Z,7.10
2022-11-13T20:44:29.006Z,7.00
2022-11-13T20:49:35.715Z,7.10
2022-11-13T20:54:42.555Z,6.90
2022-11-13T20:59:49.273Z,7.00
2022-11-13T21:04:56.053Z,7.00
2022-11-13T21:10:02.896Z,7.00
2022-11-13T21:15:10.746Z,7.10
2022-11-13T21:20:17.945Z,7.10
2022-11-13T21:25:24.803Z,7.10
2022-11-13T21:30:31.571Z,7.10
2022-11-13T21:35:38.955Z,7.10
2022-11-13T21:40:47.382Z,7.10
2022-11-13T21:45:54.225Z,7.10
2022-11-13T21:51:01.711Z,7.10
2022-11-13T21:56:15.272Z,7.20
2022-11-13T22:01:18.390Z,7.20
2022-11-13T22:06:32.181Z,7.10
2022-11-13T22:11:39.566Z,7.10
2022-11-13T22:16:48.764Z,7.20
2022-11-13T22:21:55.958Z,7.10
2022-11-13T22:27:02.895Z,7.00
2022-11-13T22:32:10.333Z,7.10
2022-11-13T22:37:17.118Z,7.10
2022-11-13T22:42:23.931Z,7.10
2022-11-13T22:47:35.682Z,7.20
2022-11-13T22:52:39.940Z,7.10
2022-11-13T22:57:46.914Z,7.20
2022-11-13T23:02:53.964Z,7.20
2022-11-13T23:08:00.678Z,7.10
2022-11-13T23:13:07.691Z,7.10
2022-11-13T23:18:15.694Z,7.10
2022-11-13T23:23:23.556Z,7.00
2022-11-13T23:28:32.013Z,6.90
2022-11-13T23:33:39.288Z,6.90
2022-11-13T23:38:47.262Z,6.80
2022-11-13T23:44:08.142Z,6.90
2022-11-13T23:49:03.449Z,6.80
2022-11-13T23:54:10.284Z,6.70
2022-11-13T23:59:17.192Z,6.80
